createdAt,value
2024-03-03T00:00:04.246Z,5.11
2024-03-03T00:03:06.234Z,4.94
2024-03-03T00:06:08.070Z,4.91
2024-03-03T00:09:10.333Z,4.69
2024-03-03T00:12:11.755Z,4.87
2024-03-03T00:15:15.508Z,5.17
2024-03-03T00:18:17.289Z,5.33
2024-03-03T00:21:18.807Z,5.64
2024-03-03T00:24:20.242Z,5.58
2024-03-03T00:27:21.688Z,5.27
2024-03-03T00:30:24.485Z,5.42
2024-03-03T00:33:25.895Z,5.47
2024-03-03T00:36:27.258Z,5.43
2024-03-03T00:39:28.750Z,5.49
2024-03-03T00:42:30.280Z,5.46
2024-03-03T00:45:32.963Z,5.62
2024-03-03T00:48:34.332Z,5.61
2024-03-03T00:51:37.333Z,5.67
2024-03-03T00:54:38.837Z,5.46
2024-03-03T00:57:40.248Z,5.30
2024-03-03T01:00:43.587Z,5.41
2024-03-03T01:03:45.102Z,5.16
2024-03-03T01:06:46.619Z,5.54
2024-03-03T01:09:48.073Z,5.28
2024-03-03T01:12:49.918Z,5.31
2024-03-03T01:15:52.623Z,5.41
2024-03-03T01:18:54.091Z,5.47
2024-03-03T01:21:55.547Z,5.47
2024-03-03T01:24:57.126Z,5.62
2024-03-03T01:27:58.659Z,5.60
2024-03-03T01:31:01.609Z,5.94
2024-03-03T01:34:03.103Z,5.55
2024-03-03T01:37:04.715Z,5.20
2024-03-03T01:40:06.967Z,5.07
2024-03-03T01:43:09.437Z,4.85
2024-03-03T01:46:12.301Z,5.08
2024-03-03T01:49:14.087Z,5.28
2024-03-03T01:52:15.620Z,4.66
2024-03-03T01:55:17.703Z,4.44
2024-03-03T01:58:19.351Z,4.58
2024-03-03T02:01:22.272Z,4.62
2024-03-03T02:04:24.003Z,4.83
2024-03-03T02:07:25.434Z,4.77
2024-03-03T02:10:26.913Z,4.59
2024-03-03T02:13:28.406Z,4.54
2024-03-03T02:16:31.208Z,4.63
2024-03-03T02:19:35.702Z,4.71
2024-03-03T02:22:38.826Z,4.71
2024-03-03T02:25:40.462Z,4.21
2024-03-03T02:28:41.872Z,4.26
2024-03-03T02:31:43.608Z,4.43
2024-03-03T02:34:45.146Z,4.28
2024-03-03T02:37:49.659Z,4.54
2024-03-03T02:40:51.069Z,4.92
2024-03-03T02:43:52.481Z,5.07
2024-03-03T02:46:54.892Z,4.81
2024-03-03T02:49:56.290Z,4.73
2024-03-03T02:52:59.398Z,4.52
2024-03-03T02:56:00.927Z,4.35
2024-03-03T02:59:02.396Z,4.23
2024-03-03T03:02:04.323Z,4.30
2024-03-03T03:05:07.113Z,4.37
2024-03-03T03:08:09.980Z,4.55
2024-03-03T03:11:13.680Z,4.59
2024-03-03T03:14:15.205Z,4.38
2024-03-03T03:17:16.690Z,4.33
2024-03-03T03:20:18.197Z,4.34
2024-03-03T03:23:20.943Z,4.34
2024-03-03T03:26:22.378Z,4.44
2024-03-03T03:29:23.909Z,4.47
2024-03-03T03:32:25.289Z,4.44
2024-03-03T03:35:26.834Z,4.40
2024-03-03T03:38:29.646Z,4.36
2024-03-03T03:41:31.117Z,4.39
2024-03-03T03:44:32.669Z,4.23
2024-03-03T03:47:34.516Z,4.20
2024-03-03T03:50:36.001Z,4.22
2024-03-03T03:53:38.740Z,4.20
2024-03-03T03:56:40.204Z,4.14
2024-03-03T03:59:42.998Z,4.22
2024-03-03T04:02:44.403Z,4.20
2024-03-03T04:05:45.870Z,4.24
2024-03-03T04:08:48.671Z,4.16
2024-03-03T04:11:50.070Z,4.14
2024-03-03T04:14:51.513Z,4.13
2024-03-03T04:17:52.961Z,4.11
2024-03-03T04:20:54.367Z,4.08
2024-03-03T04:23:57.191Z,4.09
2024-03-03T04:26:58.733Z,4.10
2024-03-03T04:30:00.320Z,4.01
2024-03-03T04:33:01.785Z,3.99
2024-03-03T04:36:03.472Z,3.92
2024-03-03T04:39:06.279Z,3.96
2024-03-03T04:42:07.858Z,3.81
2024-03-03T04:45:09.680Z,3.86
2024-03-03T04:48:11.156Z,4.01
2024-03-03T04:51:12.646Z,3.98
2024-03-03T04:54:15.418Z,4.00
2024-03-03T04:57:16.868Z,3.93
2024-03-03T05:00:18.600Z,3.90
2024-03-03T05:03:19.932Z,3.85
2024-03-03T05:06:21.389Z,3.72
2024-03-03T05:09:24.134Z,3.65
2024-03-03T05:12:25.538Z,3.70
2024-03-03T05:15:27.004Z,3.61
2024-03-03T05:18:28.366Z,3.61
2024-03-03T05:21:29.781Z,3.60
2024-03-03T05:24:32.532Z,3.71
2024-03-03T05:27:33.971Z,3.71
2024-03-03T05:30:35.359Z,3.73
2024-03-03T05:33:36.730Z,3.81
2024-03-03T05:36:38.133Z,3.72
2024-03-03T05:39:40.864Z,3.68
2024-03-03T05:42:42.311Z,3.61
2024-03-03T05:45:44.896Z,3.68
2024-03-03T05:48:47.294Z,3.60
2024-03-03T05:51:48.759Z,3.67
2024-03-03T05:54:51.588Z,3.63
2024-03-03T05:57:53.085Z,3.69
2024-03-03T06:00:54.571Z,3.62
2024-03-03T06:03:56.040Z,3.68
2024-03-03T06:06:57.480Z,3.63
2024-03-03T06:10:00.398Z,3.61
2024-03-03T06:13:02.017Z,3.65
2024-03-03T06:16:03.677Z,3.67
2024-03-03T06:19:05.230Z,3.64
2024-03-03T06:22:07.769Z,3.55
2024-03-03T06:25:11.326Z,3.56
2024-03-03T06:28:12.859Z,3.60
2024-03-03T06:31:14.304Z,3.53
2024-03-03T06:34:15.756Z,3.60
2024-03-03T06:37:17.263Z,3.63
2024-03-03T06:40:20.204Z,3.54
2024-03-03T06:43:21.795Z,3.62
2024-03-03T06:46:23.242Z,3.69
2024-03-03T06:49:28.886Z,3.84
2024-03-03T06:52:30.373Z,3.89
2024-03-03T06:55:33.189Z,3.96
2024-03-03T06:58:34.699Z,4.17
2024-03-03T07:01:38.671Z,4.15
2024-03-03T07:04:40.243Z,4.15
2024-03-03T07:07:41.634Z,4.31
2024-03-03T07:10:44.413Z,4.41
2024-03-03T07:13:45.951Z,4.43
2024-03-03T07:16:47.332Z,4.39
2024-03-03T07:19:48.723Z,4.51
2024-03-03T07:22:50.154Z,4.66
2024-03-03T07:25:52.939Z,4.75
2024-03-03T07:28:54.289Z,4.79
2024-03-03T07:31:55.694Z,5.04
2024-03-03T07:34:57.125Z,5.19
2024-03-03T07:37:58.569Z,5.30
2024-03-03T07:41:01.355Z,5.44
2024-03-03T07:44:02.731Z,5.52
2024-03-03T07:47:08.569Z,5.51
2024-03-03T07:50:10.111Z,5.60
2024-03-03T07:53:11.756Z,5.66
2024-03-03T07:56:14.561Z,5.86
2024-03-03T07:59:16.002Z,5.87
2024-03-03T08:02:17.363Z,6.13
2024-03-03T08:05:18.985Z,6.24
2024-03-03T08:08:20.358Z,6.36
2024-03-03T08:11:23.034Z,6.78
2024-03-03T08:14:24.520Z,6.89
2024-03-03T08:17:25.940Z,6.86
2024-03-03T08:20:34.056Z,6.87
2024-03-03T08:23:35.402Z,7.04
2024-03-03T08:26:38.152Z,7.09
2024-03-03T08:29:39.598Z,6.83
2024-03-03T08:32:41.229Z,7.07
2024-03-03T08:35:42.660Z,6.96
2024-03-03T08:38:44.405Z,7.25
2024-03-03T08:41:47.334Z,7.14
2024-03-03T08:44:48.807Z,7.04
2024-03-03T08:47:53.245Z,7.13
2024-03-03T08:50:58.984Z,7.05
2024-03-03T08:54:00.366Z,7.39
2024-03-03T08:57:06.288Z,7.47
2024-03-03T09:00:09.438Z,7.61
2024-03-03T09:03:10.819Z,7.50
2024-03-03T09:06:16.992Z,8.00
2024-03-03T09:09:18.329Z,7.66
2024-03-03T09:12:27.861Z,8.24
2024-03-03T09:15:36.116Z,8.25
2024-03-03T09:18:37.569Z,8.31
2024-03-03T09:21:38.986Z,8.12
2024-03-03T09:24:40.963Z,8.51
2024-03-03T09:27:43.762Z,8.27
2024-03-03T09:30:45.281Z,8.21
2024-03-03T09:33:47.184Z,8.62
2024-03-03T09:36:48.712Z,8.45
2024-03-03T09:39:50.188Z,8.81
2024-03-03T09:42:52.976Z,9.13
2024-03-03T09:45:54.415Z,9.04
2024-03-03T09:48:55.927Z,8.86
2024-03-03T09:51:57.330Z,9.05
2024-03-03T09:54:58.852Z,8.92
2024-03-03T09:58:01.583Z,8.88
2024-03-03T10:01:03.277Z,8.84
2024-03-03T10:04:05.021Z,8.72
2024-03-03T10:07:06.887Z,8.98
2024-03-03T10:10:08.676Z,9.57
2024-03-03T10:13:11.436Z,9.53
2024-03-03T10:16:12.991Z,9.20
2024-03-03T10:19:14.494Z,9.11
2024-03-03T10:22:17.419Z,9.26
2024-03-03T10:25:19.039Z,9.60
2024-03-03T10:28:21.862Z,9.67
2024-03-03T10:31:23.583Z,9.35
2024-03-03T10:34:25.609Z,9.44
2024-03-03T10:37:27.371Z,9.53
2024-03-03T10:40:28.957Z,9.97
2024-03-03T10:43:31.758Z,9.51
2024-03-03T10:46:33.331Z,9.98
2024-03-03T10:49:34.844Z,10.12
2024-03-03T10:52:38.108Z,9.86
2024-03-03T10:55:39.903Z,9.66
2024-03-03T10:58:42.583Z,10.14
2024-03-03T11:01:44.173Z,9.91
2024-03-03T11:04:45.678Z,9.97
2024-03-03T11:07:47.109Z,10.25
2024-03-03T11:10:49.296Z,10.52
2024-03-03T11:13:58.562Z,10.55
2024-03-03T11:17:00.211Z,10.56
2024-03-03T11:20:01.975Z,10.75
2024-03-03T11:23:06.525Z,10.68
2024-03-03T11:26:09.498Z,10.05
2024-03-03T11:29:12.371Z,10.05
2024-03-03T11:32:13.837Z,10.16
2024-03-03T11:35:15.310Z,10.16
2024-03-03T11:38:16.802Z,9.96
2024-03-03T11:41:18.434Z,9.91
2024-03-03T11:44:39.043Z,10.15
2024-03-03T11:47:42.779Z,10.12
2024-03-03T11:50:44.308Z,10.26
2024-03-03T11:53:47.983Z,10.31
2024-03-03T11:56:50.999Z,10.48
2024-03-03T11:59:58.589Z,10.59
2024-03-03T12:03:01.619Z,10.80
2024-03-03T12:06:03.357Z,10.78
2024-03-03T12:09:05.053Z,10.78
2024-03-03T12:12:07.154Z,10.80
2024-03-03T12:15:08.876Z,10.99
2024-03-03T12:18:12.005Z,10.92
2024-03-03T12:21:13.391Z,11.22
2024-03-03T12:24:14.856Z,11.72
2024-03-03T12:27:16.260Z,11.96
2024-03-03T12:30:19.650Z,12.39
2024-03-03T12:33:22.494Z,12.49
2024-03-03T12:36:23.965Z,11.76
2024-03-03T12:39:25.330Z,11.74
2024-03-03T12:42:26.729Z,11.59
2024-03-03T12:45:28.158Z,12.00
2024-03-03T12:48:30.908Z,12.25
2024-03-03T12:51:32.297Z,12.58
2024-03-03T12:54:33.841Z,12.48
2024-03-03T12:57:35.213Z,12.69
2024-03-03T13:00:36.726Z,12.63
2024-03-03T13:03:43.115Z,13.06
2024-03-03T13:06:46.195Z,12.35
2024-03-03T13:09:49.875Z,12.05
2024-03-03T13:12:52.470Z,12.38
2024-03-03T13:15:54.220Z,12.66
2024-03-03T13:19:00.412Z,12.26
2024-03-03T13:22:02.141Z,12.51
2024-03-03T13:25:03.866Z,12.37
2024-03-03T13:28:05.690Z,12.20
2024-03-03T13:31:07.585Z,11.91
2024-03-03T13:34:11.663Z,12.28
2024-03-03T13:37:13.267Z,12.21
2024-03-03T13:40:14.737Z,11.76
2024-03-03T13:43:16.339Z,11.71
2024-03-03T13:46:17.827Z,11.95
2024-03-03T13:49:20.645Z,11.60
2024-03-03T13:52:22.170Z,11.70
2024-03-03T13:55:23.646Z,11.86
2024-03-03T13:58:25.291Z,11.72
2024-03-03T14:01:26.806Z,11.75
2024-03-03T14:04:29.653Z,11.82
2024-03-03T14:07:32.098Z,11.91
2024-03-03T14:10:33.740Z,11.66
2024-03-03T14:13:36.254Z,11.73
2024-03-03T14:16:37.782Z,11.68
2024-03-03T14:19:40.687Z,11.59
2024-03-03T14:22:42.124Z,11.55
2024-03-03T14:25:43.600Z,11.64
2024-03-03T14:28:45.200Z,11.75
2024-03-03T14:31:46.685Z,11.64
2024-03-03T14:34:49.456Z,11.41
2024-03-03T14:37:50.896Z,11.63
2024-03-03T14:40:52.277Z,11.59
2024-03-03T14:43:53.702Z,11.51
2024-03-03T14:46:55.127Z,11.58
2024-03-03T14:50:00.891Z,11.63
2024-03-03T14:53:04.115Z,11.56
2024-03-03T14:56:05.759Z,11.71
2024-03-03T14:59:07.182Z,11.52
2024-03-03T15:02:08.679Z,11.58
2024-03-03T15:05:11.529Z,11.63
2024-03-03T15:08:13.989Z,11.69
2024-03-03T15:11:15.328Z,11.42
2024-03-03T15:14:16.737Z,11.50
2024-03-03T15:17:18.435Z,11.51
2024-03-03T15:20:21.139Z,11.41
2024-03-03T15:23:23.478Z,11.29
2024-03-03T15:26:24.806Z,11.45
2024-03-03T15:29:26.176Z,11.48
2024-03-03T15:32:27.632Z,11.53
2024-03-03T15:35:30.415Z,11.47
2024-03-03T15:38:31.884Z,11.39
2024-03-03T15:41:33.282Z,11.45
2024-03-03T15:44:34.719Z,11.23
2024-03-03T15:47:36.184Z,11.15
2024-03-03T15:50:38.917Z,11.09
2024-03-03T15:53:40.296Z,10.97
2024-03-03T15:56:41.818Z,10.93
2024-03-03T15:59:43.187Z,10.78
2024-03-03T16:02:44.760Z,10.63
2024-03-03T16:05:47.513Z,10.64
2024-03-03T16:08:48.968Z,10.58
2024-03-03T16:11:50.315Z,10.43
2024-03-03T16:14:51.817Z,10.35
2024-03-03T16:17:53.302Z,10.35
2024-03-03T16:20:57.069Z,10.25
2024-03-03T16:23:58.514Z,10.22
2024-03-03T16:27:02.119Z,10.04
2024-03-03T16:30:04.807Z,9.74
2024-03-03T16:33:07.239Z,9.86
2024-03-03T16:36:15.022Z,9.79
2024-03-03T16:39:19.774Z,9.63
2024-03-03T16:42:21.285Z,9.68
2024-03-03T16:45:22.771Z,9.64
2024-03-03T16:48:24.298Z,9.74
2024-03-03T16:51:27.102Z,9.57
2024-03-03T16:54:28.491Z,9.46
2024-03-03T16:57:29.967Z,9.16
2024-03-03T17:00:31.392Z,9.24
2024-03-03T17:03:32.866Z,9.15
2024-03-03T17:06:35.576Z,9.04
2024-03-03T17:09:37.034Z,9.04
2024-03-03T17:12:38.495Z,8.91
2024-03-03T17:15:39.899Z,8.66
2024-03-03T17:18:41.277Z,8.72
2024-03-03T17:21:44.009Z,8.74
2024-03-03T17:24:45.371Z,8.44
2024-03-03T17:27:46.783Z,8.47
2024-03-03T17:30:48.328Z,8.41
2024-03-03T17:33:49.799Z,8.73
2024-03-03T17:36:52.649Z,8.45
2024-03-03T17:39:54.098Z,8.44
2024-03-03T17:42:55.504Z,8.42
2024-03-03T17:45:56.970Z,8.20
2024-03-03T17:48:58.476Z,8.09
2024-03-03T17:52:01.281Z,8.19
2024-03-03T17:55:02.898Z,7.99
2024-03-03T17:58:04.337Z,8.26
2024-03-03T18:01:05.940Z,8.25
2024-03-03T18:04:07.405Z,8.21
2024-03-03T18:07:11.816Z,8.07
2024-03-03T18:10:14.526Z,7.99
2024-03-03T18:13:16.179Z,8.00
2024-03-03T18:16:17.660Z,7.61
2024-03-03T18:19:19.216Z,7.69
2024-03-03T18:22:26.539Z,7.80
2024-03-03T18:25:31.382Z,7.61
2024-03-03T18:28:32.874Z,7.52
2024-03-03T18:31:34.392Z,7.21
2024-03-03T18:34:35.981Z,7.09
2024-03-03T18:37:42.030Z,7.03
2024-03-03T18:40:43.551Z,7.16
2024-03-03T18:43:45.014Z,7.38
2024-03-03T18:46:46.416Z,7.48
2024-03-03T18:49:47.787Z,7.46
2024-03-03T18:52:50.556Z,7.35
2024-03-03T18:55:52.045Z,7.17
2024-03-03T18:58:53.415Z,7.12
2024-03-03T19:01:55.158Z,7.12
2024-03-03T19:04:56.644Z,7.54
2024-03-03T19:08:00.501Z,7.43
2024-03-03T19:11:01.973Z,7.11
2024-03-03T19:14:03.353Z,6.99
2024-03-03T19:17:04.952Z,6.84
2024-03-03T19:20:07.132Z,6.86
2024-03-03T19:23:13.093Z,6.67
2024-03-03T19:26:20.478Z,6.66
2024-03-03T19:29:21.958Z,6.63
2024-03-03T19:32:23.308Z,6.71
2024-03-03T19:35:24.706Z,6.78
2024-03-03T19:38:31.491Z,6.67
2024-03-03T19:41:32.878Z,6.75
2024-03-03T19:44:34.622Z,6.67
2024-03-03T19:47:36.094Z,6.93
2024-03-03T19:50:37.624Z,7.09
2024-03-03T19:53:43.382Z,7.01
2024-03-03T19:56:48.060Z,7.15
2024-03-03T19:59:49.442Z,7.15
2024-03-03T20:02:50.963Z,7.10
2024-03-03T20:05:52.393Z,7.29
2024-03-03T20:09:01.404Z,7.28
2024-03-03T20:12:02.969Z,7.34
2024-03-03T20:15:06.552Z,7.44
2024-03-03T20:18:08.003Z,7.45
2024-03-03T20:21:09.463Z,7.25
2024-03-03T20:24:15.804Z,7.28
2024-03-03T20:27:21.542Z,7.35
2024-03-03T20:30:23.030Z,7.26
2024-03-03T20:33:24.366Z,7.27
2024-03-03T20:36:25.780Z,7.24
2024-03-03T20:39:28.668Z,7.08
2024-03-03T20:42:33.386Z,6.88
2024-03-03T20:45:34.811Z,6.85
2024-03-03T20:48:36.208Z,6.77
2024-03-03T20:51:37.665Z,6.67
2024-03-03T20:54:40.430Z,6.47
2024-03-03T20:57:45.251Z,6.05
2024-03-03T21:00:46.675Z,6.00
2024-03-03T21:03:48.125Z,5.97
2024-03-03T21:06:49.540Z,6.27
2024-03-03T21:09:55.334Z,6.56
2024-03-03T21:13:00.062Z,6.32
2024-03-03T21:16:01.595Z,6.39
2024-03-03T21:19:03.172Z,6.40
2024-03-03T21:22:04.673Z,6.40
2024-03-03T21:25:12.586Z,6.26
2024-03-03T21:28:14.099Z,6.49
2024-03-03T21:31:15.697Z,6.61
2024-03-03T21:34:17.125Z,6.49
2024-03-03T21:37:18.653Z,6.36
2024-03-03T21:40:22.542Z,6.14
2024-03-03T21:43:27.197Z,6.10
2024-03-03T21:46:28.692Z,6.21
2024-03-03T21:49:30.212Z,6.19
2024-03-03T21:52:31.784Z,6.23
2024-03-03T21:55:34.645Z,6.21
2024-03-03T21:58:38.385Z,6.21
2024-03-03T22:01:48.415Z,6.14
2024-03-03T22:04:57.776Z,6.12
2024-03-03T22:07:59.216Z,5.98
2024-03-03T22:11:04.988Z,5.99
2024-03-03T22:14:06.395Z,5.78
2024-03-03T22:17:07.844Z,5.82
2024-03-03T22:20:09.878Z,5.73
2024-03-03T22:23:11.237Z,5.78
2024-03-03T22:26:18.482Z,5.69
2024-03-03T22:29:20.062Z,5.31
2024-03-03T22:32:21.458Z,5.34
2024-03-03T22:35:22.910Z,5.46
2024-03-03T22:38:24.301Z,5.25
2024-03-03T22:41:31.443Z,5.24
2024-03-03T22:44:36.213Z,5.21
2024-03-03T22:47:37.757Z,4.99
2024-03-03T22:50:39.167Z,5.08
2024-03-03T22:53:40.528Z,4.82
2024-03-03T22:56:43.343Z,4.69
2024-03-03T22:59:45.699Z,4.56
2024-03-03T23:02:47.098Z,4.67
2024-03-03T23:05:48.438Z,4.89
2024-03-03T23:08:49.872Z,5.06
2024-03-03T23:11:52.669Z,4.96
2024-03-03T23:14:57.354Z,4.73
2024-03-03T23:17:58.800Z,4.71
2024-03-03T23:21:00.245Z,4.93
2024-03-03T23:24:01.669Z,5.09
2024-03-03T23:27:05.122Z,4.95
2024-03-03T23:30:07.040Z,4.99
2024-03-03T23:33:08.407Z,4.95
2024-03-03T23:36:09.866Z,4.98
2024-03-03T23:39:11.335Z,4.98
2024-03-03T23:42:15.105Z,5.05
2024-03-03T23:45:16.584Z,5.09
2024-03-03T23:48:17.975Z,4.87
2024-03-03T23:51:19.439Z,4.87
2024-03-03T23:54:20.820Z,4.97
2024-03-03T23:57:23.674Z,5.05
